createdAt,value
2022-12-03T00:02:11.965Z,95430.00
2022-12-03T00:04:39.738Z,95428.50
2022-12-03T00:07:08.930Z,95426.09
2022-12-03T00:09:36.607Z,95431.72
2022-12-03T00:12:04.427Z,95420.22
2022-12-03T00:14:32.099Z,95420.22
2022-12-03T00:17:01.585Z,95427.38
2022-12-03T00:19:29.232Z,95425.19
2022-12-03T00:22:31.803Z,95427.13
2022-12-03T00:24:59.468Z,95435.75
2022-12-03T00:27:27.080Z,95430.94
2022-12-03T00:29:56.942Z,95436.25
2022-12-03T00:32:24.550Z,95432.31
2022-12-03T00:34:52.549Z,95428.03
2022-12-03T00:37:20.403Z,95430.56
2022-12-03T00:39:49.367Z,95439.47
2022-12-03T00:42:17.051Z,95429.44
2022-12-03T00:44:45.412Z,95429.69
2022-12-03T00:47:13.047Z,95431.75
2022-12-03T00:49:41.252Z,95421.97
2022-12-03T00:52:09.062Z,95419.41
2022-12-03T00:54:36.713Z,95424.72
2022-12-03T00:57:06.504Z,95427.03
2022-12-03T00:59:34.204Z,95428.16
2022-12-03T01:02:03.096Z,95430.50
2022-12-03T01:04:31.072Z,95431.94
2022-12-03T01:06:58.730Z,95429.47
2022-12-03T01:09:26.455Z,95432.44
2022-12-03T01:11:54.105Z,95434.75
2022-12-03T01:14:23.674Z,95435.25
2022-12-03T01:16:51.413Z,95433.75
2022-12-03T01:19:19.675Z,95438.78
2022-12-03T01:21:49.636Z,95431.91
2022-12-03T01:24:18.316Z,95426.28
2022-12-03T01:26:46.497Z,95426.69
2022-12-03T01:29:14.816Z,95429.38
2022-12-03T01:32:01.061Z,95423.59
2022-12-03T01:34:28.779Z,95426.78
2022-12-03T01:36:56.674Z,95420.84
2022-12-03T01:39:24.773Z,95422.34
2022-12-03T01:41:54.422Z,95429.41
2022-12-03T01:44:24.379Z,95426.03
2022-12-03T01:46:55.741Z,95440.38
2022-12-03T01:49:26.750Z,95431.09
2022-12-03T01:51:56.097Z,95439.75
2022-12-03T01:54:27.499Z,95441.59
2022-12-03T01:56:56.431Z,95443.88
2022-12-03T01:59:33.924Z,95444.91
2022-12-03T02:02:12.567Z,95446.19
2022-12-03T02:04:40.701Z,95436.94
2022-12-03T02:07:23.003Z,95427.22
2022-12-03T02:09:51.018Z,95428.25
2022-12-03T02:12:22.285Z,95426.91
2022-12-03T02:14:50.812Z,95438.31
2022-12-03T02:17:20.111Z,95443.38
2022-12-03T02:19:48.077Z,95441.41
2022-12-03T02:22:28.031Z,95445.69
2022-12-03T02:25:14.563Z,95446.47
2022-12-03T02:27:42.642Z,95442.06
2022-12-03T02:30:12.609Z,95444.13
2022-12-03T02:32:40.761Z,95442.38
2022-12-03T02:35:14.745Z,95444.69
2022-12-03T02:37:44.743Z,95438.06
2022-12-03T02:40:18.667Z,95445.63
2022-12-03T02:42:45.494Z,95442.72
2022-12-03T02:45:16.242Z,95444.69
2022-12-03T02:47:45.999Z,95440.13
2022-12-03T02:50:16.278Z,95440.72
2022-12-03T02:52:46.395Z,95441.88
2022-12-03T02:55:17.694Z,95443.66
2022-12-03T02:57:47.784Z,95433.63
2022-12-03T03:00:17.551Z,95439.84
2022-12-03T03:02:46.533Z,95439.78
2022-12-03T03:05:16.528Z,95428.69
2022-12-03T03:07:44.370Z,95431.25
2022-12-03T03:10:16.041Z,95433.97
2022-12-03T03:12:44.003Z,95440.81
2022-12-03T03:15:12.800Z,95438.06
2022-12-03T03:17:40.909Z,95445.03
2022-12-03T03:20:10.307Z,95434.25
2022-12-03T03:22:41.019Z,95437.06
2022-12-03T03:25:11.308Z,95429.69
2022-12-03T03:27:42.061Z,95433.09
2022-12-03T03:30:11.845Z,95428.03
2022-12-03T03:32:41.007Z,95417.75
2022-12-03T03:35:10.493Z,95415.38
2022-12-03T03:37:38.263Z,95419.06
2022-12-03T03:40:07.358Z,95423.84
2022-12-03T03:42:35.541Z,95429.47
2022-12-03T03:45:05.287Z,95430.47
2022-12-03T03:47:33.152Z,95420.19
2022-12-03T03:50:00.943Z,95416.13
2022-12-03T03:52:29.023Z,95423.38
2022-12-03T03:54:56.826Z,95427.97
2022-12-03T03:57:24.561Z,95422.31
2022-12-03T03:59:52.932Z,95416.03
2022-12-03T04:02:23.762Z,95422.97
2022-12-03T04:04:53.000Z,95420.66
2022-12-03T04:07:21.155Z,95416.75
2022-12-03T04:09:48.741Z,95419.00
2022-12-03T04:12:39.497Z,95426.19
2022-12-03T04:15:08.639Z,95417.03
2022-12-03T04:17:37.818Z,95414.03
2022-12-03T04:20:06.697Z,95412.84
2022-12-03T04:22:42.540Z,95409.78
2022-12-03T04:25:28.564Z,95407.53
2022-12-03T04:28:13.933Z,95411.78
2022-12-03T04:30:41.722Z,95416.69
2022-12-03T04:33:28.104Z,95413.50
2022-12-03T04:35:55.764Z,95418.25
2022-12-03T04:38:23.403Z,95428.03
2022-12-03T04:41:04.184Z,95433.91
2022-12-03T04:43:33.759Z,95438.72
2022-12-03T04:46:02.674Z,95432.50
2022-12-03T04:48:31.727Z,95445.97
2022-12-03T04:50:59.316Z,95435.97
2022-12-03T04:53:27.058Z,95441.47
2022-12-03T04:55:54.754Z,95441.84
2022-12-03T04:58:22.345Z,95430.59
2022-12-03T05:00:49.979Z,95426.63
2022-12-03T05:03:17.666Z,95436.91
2022-12-03T05:05:47.112Z,95441.19
2022-12-03T05:08:14.804Z,95431.25
2022-12-03T05:10:42.494Z,95437.28
2022-12-03T05:13:10.120Z,95430.56
2022-12-03T05:15:37.746Z,95430.28
2022-12-03T05:18:05.635Z,95429.78
2022-12-03T05:20:52.751Z,95440.44
2022-12-03T05:23:22.804Z,95439.28
2022-12-03T05:25:50.433Z,95431.88
2022-12-03T05:28:18.166Z,95436.50
2022-12-03T05:30:45.891Z,95444.28
2022-12-03T05:33:13.725Z,95435.00
2022-12-03T05:35:41.369Z,95439.38
2022-12-03T05:38:09.080Z,95442.78
2022-12-03T05:40:38.180Z,95445.50
2022-12-03T05:43:05.127Z,95441.44
2022-12-03T05:45:34.220Z,95443.16
2022-12-03T05:48:03.655Z,95442.31
2022-12-03T05:50:33.847Z,95430.59
2022-12-03T05:53:01.841Z,95438.53
2022-12-03T05:55:29.645Z,95449.78
2022-12-03T05:57:59.011Z,95449.22
2022-12-03T06:00:28.823Z,95452.84
2022-12-03T06:02:56.648Z,95453.06
2022-12-03T06:05:25.529Z,95452.53
2022-12-03T06:07:54.104Z,95442.41
2022-12-03T06:10:23.837Z,95437.38
2022-12-03T06:12:52.311Z,95447.63
2022-12-03T06:15:21.802Z,95440.91
2022-12-03T06:17:49.400Z,95441.75
2022-12-03T06:20:18.592Z,95442.50
2022-12-03T06:22:46.793Z,95443.16
2022-12-03T06:25:15.150Z,95433.66
2022-12-03T06:27:43.633Z,95434.47
2022-12-03T06:30:13.466Z,95437.13
2022-12-03T06:32:42.622Z,95433.81
2022-12-03T06:35:10.873Z,95428.84
2022-12-03T06:37:38.475Z,95433.13
2022-12-03T06:40:07.484Z,95437.19
2022-12-03T06:42:35.101Z,95433.72
2022-12-03T06:45:03.380Z,95438.88
2022-12-03T06:47:31.035Z,95436.16
2022-12-03T06:50:00.024Z,95428.97
2022-12-03T06:52:27.699Z,95426.47
2022-12-03T06:54:55.603Z,95427.53
2022-12-03T06:57:23.397Z,95429.59
2022-12-03T06:59:51.236Z,95419.22
2022-12-03T07:02:19.493Z,95421.00
2022-12-03T07:04:47.070Z,95423.84
2022-12-03T07:07:16.029Z,95431.34
2022-12-03T07:09:44.663Z,95431.78
2022-12-03T07:12:12.227Z,95425.41
2022-12-03T07:14:39.853Z,95422.31
2022-12-03T07:17:08.183Z,95423.25
2022-12-03T07:19:35.824Z,95422.22
2022-12-03T07:22:03.967Z,95422.88
2022-12-03T07:24:34.604Z,95431.28
2022-12-03T07:27:03.373Z,95432.84
2022-12-03T07:29:31.058Z,95429.22
2022-12-03T07:31:58.819Z,95414.63
2022-12-03T07:34:26.519Z,95424.47
2022-12-03T07:36:55.564Z,95436.41
2022-12-03T07:39:24.364Z,95423.41
2022-12-03T07:41:53.586Z,95425.00
2022-12-03T07:44:23.159Z,95426.66
2022-12-03T07:46:52.424Z,95422.06
2022-12-03T07:49:21.001Z,95428.97
2022-12-03T07:51:54.583Z,95431.38
2022-12-03T07:54:22.539Z,95431.56
2022-12-03T07:56:52.125Z,95425.06
2022-12-03T07:59:23.429Z,95433.75
2022-12-03T08:01:51.477Z,95435.47
2022-12-03T08:04:21.265Z,95432.41
2022-12-03T08:06:49.603Z,95430.91
2022-12-03T08:09:17.360Z,95424.75
2022-12-03T08:11:47.914Z,95423.66
2022-12-03T08:14:17.606Z,95421.91
2022-12-03T08:16:49.715Z,95422.81
2022-12-03T08:19:18.669Z,95420.75
2022-12-03T08:21:46.321Z,95423.47
2022-12-03T08:24:15.952Z,95412.81
2022-12-03T08:26:44.973Z,95406.59
2022-12-03T08:29:14.384Z,95406.84
2022-12-03T08:31:42.653Z,95413.97
2022-12-03T08:34:18.597Z,95421.31
2022-12-03T08:37:00.373Z,95423.84
2022-12-03T08:39:34.593Z,95418.59
2022-12-03T08:42:30.616Z,95422.25
2022-12-03T08:45:21.213Z,95429.28
2022-12-03T08:48:12.023Z,95435.66
2022-12-03T08:50:43.228Z,95428.44
2022-12-03T08:53:26.950Z,95433.34
2022-12-03T08:55:57.123Z,95441.28
2022-12-03T08:58:39.250Z,95438.28
2022-12-03T09:01:42.850Z,95432.44
2022-12-03T09:04:32.858Z,95423.63
2022-12-03T09:10:32.795Z,95425.94
2022-12-03T09:13:00.512Z,95423.78
2022-12-03T09:15:29.874Z,95424.84
2022-12-03T09:17:58.555Z,95423.50
2022-12-03T09:20:26.284Z,95427.78
2022-12-03T09:22:55.306Z,95433.50
2022-12-03T09:25:23.187Z,95433.31
2022-12-03T09:27:51.160Z,95432.84
2022-12-03T09:30:18.971Z,95416.72
2022-12-03T09:32:50.177Z,95423.28
2022-12-03T09:35:18.259Z,95425.75
2022-12-03T09:37:45.934Z,95419.78
2022-12-03T09:40:15.928Z,95424.44
2022-12-03T09:42:45.106Z,95422.94
2022-12-03T09:45:16.654Z,95416.22
2022-12-03T09:47:48.393Z,95411.47
2022-12-03T09:50:19.914Z,95415.13
2022-12-03T09:52:49.673Z,95401.78
2022-12-03T09:55:23.412Z,95397.03
2022-12-03T09:57:52.612Z,95399.22
2022-12-03T10:00:23.415Z,95394.63
2022-12-03T10:02:55.843Z,95393.81
2022-12-03T10:05:24.177Z,95382.06
2022-12-03T10:07:54.264Z,95376.25
2022-12-03T10:10:35.632Z,95381.22
2022-12-03T10:13:04.552Z,95373.19
2022-12-03T10:15:33.134Z,95379.41
2022-12-03T10:18:12.297Z,95378.16
2022-12-03T10:20:57.716Z,95381.75
2022-12-03T10:23:28.154Z,95380.06
2022-12-03T10:25:59.209Z,95366.84
2022-12-03T10:28:35.009Z,95361.84
2022-12-03T10:31:05.834Z,95356.22
2022-12-03T10:33:52.181Z,95352.41
2022-12-03T10:36:23.326Z,95356.97
2022-12-03T10:39:12.330Z,95348.59
2022-12-03T10:41:42.659Z,95362.09
2022-12-03T10:44:17.496Z,95343.97
2022-12-03T10:46:48.296Z,95342.06
2022-12-03T10:49:18.313Z,95344.97
2022-12-03T10:51:47.020Z,95341.75
2022-12-03T10:54:24.015Z,95338.41
2022-12-03T10:56:54.620Z,95336.06
2022-12-03T10:59:26.108Z,95339.25
2022-12-03T11:01:56.713Z,95333.19
2022-12-03T11:04:32.353Z,95330.25
2022-12-03T11:07:05.244Z,95323.34
2022-12-03T11:09:35.489Z,95327.72
2022-12-03T11:12:23.347Z,95329.19
2022-12-03T11:15:15.721Z,95333.25
2022-12-03T11:17:50.519Z,95332.13
2022-12-03T11:21:11.852Z,95326.59
2022-12-03T11:24:28.405Z,95333.69
2022-12-03T11:27:20.571Z,95333.84
2022-12-03T11:29:52.152Z,95336.66
2022-12-03T11:33:00.224Z,95326.91
2022-12-03T11:35:29.544Z,95340.16
2022-12-03T11:38:38.227Z,95333.28
2022-12-03T11:41:09.744Z,95326.53
2022-12-03T11:44:05.667Z,95327.31
2022-12-03T11:46:43.389Z,95333.34
2022-12-03T11:49:31.059Z,95327.88
2022-12-03T11:51:58.939Z,95323.69
2022-12-03T11:54:27.000Z,95326.09
2022-12-03T11:56:56.061Z,95325.06
2022-12-03T11:59:24.997Z,95332.22
2022-12-03T12:01:52.609Z,95326.16
2022-12-03T12:04:32.380Z,95329.47
2022-12-03T12:07:00.431Z,95325.00
2022-12-03T12:09:51.003Z,95321.84
2022-12-03T12:12:19.992Z,95311.00
2022-12-03T12:14:49.044Z,95307.34
2022-12-03T12:17:36.152Z,95314.41
2022-12-03T12:20:28.524Z,95316.97
2022-12-03T12:22:56.824Z,95303.97
2022-12-03T12:25:41.581Z,95303.97
2022-12-03T12:28:09.742Z,95296.28
2022-12-03T12:30:40.146Z,95299.59
2022-12-03T12:33:23.200Z,95294.59
2022-12-03T12:35:51.805Z,95295.44
2022-12-03T12:38:21.525Z,95293.75
2022-12-03T12:40:50.682Z,95296.34
2022-12-03T12:43:25.056Z,95276.63
2022-12-03T12:45:56.877Z,95279.53
2022-12-03T12:48:27.525Z,95281.03
2022-12-03T12:51:01.084Z,95276.78
2022-12-03T12:53:31.502Z,95280.38
2022-12-03T12:56:01.187Z,95272.19
2022-12-03T12:58:32.908Z,95268.66
2022-12-03T13:01:06.752Z,95257.19
2022-12-03T13:03:37.938Z,95256.00
2022-12-03T13:06:05.915Z,95261.81
2022-12-03T13:08:38.308Z,95261.03
2022-12-03T13:11:07.425Z,95260.94
2022-12-03T13:13:43.699Z,95263.00
2022-12-03T13:16:20.315Z,95261.19
2022-12-03T13:18:50.040Z,95259.97
2022-12-03T13:21:26.261Z,95246.81
2022-12-03T13:23:55.602Z,95236.97
2022-12-03T13:26:38.804Z,95239.19
2022-12-03T13:29:12.736Z,95245.53
2022-12-03T13:34:34.698Z,95238.59
2022-12-03T13:37:03.100Z,95226.94
2022-12-03T13:39:33.084Z,95227.41
2022-12-03T13:42:31.175Z,95229.94
2022-12-03T13:44:58.794Z,95232.75
2022-12-03T13:47:27.797Z,95239.09
2022-12-03T13:49:57.858Z,95239.88
2022-12-03T13:52:26.815Z,95232.22
2022-12-03T13:54:57.124Z,95245.38
2022-12-03T13:57:24.879Z,95234.63
2022-12-03T13:59:52.827Z,95241.66
2022-12-03T14:02:20.740Z,95234.56
2022-12-03T14:04:49.729Z,95236.75
2022-12-03T14:07:17.682Z,95236.63
2022-12-03T14:09:45.356Z,95232.31
2022-12-03T14:12:28.931Z,95237.94
2022-12-03T14:14:57.186Z,95234.03
2022-12-03T14:17:24.975Z,95225.09
2022-12-03T14:19:54.452Z,95219.31
2022-12-03T14:22:25.247Z,95225.50
2022-12-03T14:24:53.200Z,95234.19
2022-12-03T14:27:21.547Z,95230.91
2022-12-03T14:29:49.513Z,95229.94
2022-12-03T14:32:17.286Z,95223.13
2022-12-03T14:34:45.020Z,95225.44
2022-12-03T14:37:14.079Z,95236.63
2022-12-03T14:39:41.639Z,95231.41
2022-12-03T14:42:15.200Z,95231.59
2022-12-03T14:44:44.123Z,95228.47
2022-12-03T14:47:12.545Z,95221.13
2022-12-03T14:49:40.520Z,95229.19
2022-12-03T14:52:11.946Z,95228.06
2022-12-03T14:54:42.992Z,95227.03
2022-12-03T14:57:13.385Z,95227.28
2022-12-03T14:59:41.268Z,95231.41
2022-12-03T15:02:09.383Z,95228.06
2022-12-03T15:04:37.184Z,95218.78
2022-12-03T15:07:04.834Z,95218.94
2022-12-03T15:09:32.531Z,95218.28
2022-12-03T15:12:01.499Z,95219.91
2022-12-03T15:14:29.166Z,95224.72
2022-12-03T15:16:56.980Z,95216.22
2022-12-03T15:19:24.637Z,95212.13
2022-12-03T15:21:52.316Z,95216.28
2022-12-03T15:24:19.991Z,95219.28
2022-12-03T15:26:47.627Z,95221.00
2022-12-03T15:29:16.575Z,95222.88
2022-12-03T15:31:44.578Z,95229.53
2022-12-03T15:34:14.950Z,95218.78
2022-12-03T15:36:45.045Z,95220.19
2022-12-03T15:39:12.653Z,95221.34
2022-12-03T15:41:40.242Z,95221.91
2022-12-03T15:44:07.907Z,95208.34
2022-12-03T15:46:37.023Z,95213.66
2022-12-03T15:49:04.766Z,95212.91
2022-12-03T15:51:32.401Z,95210.25
2022-12-03T15:54:00.033Z,95203.94
2022-12-03T15:56:27.624Z,95202.22
2022-12-03T15:58:55.299Z,95199.25
2022-12-03T16:01:23.051Z,95198.75
2022-12-03T16:03:52.037Z,95213.06
2022-12-03T16:06:19.834Z,95211.50
2022-12-03T16:08:48.134Z,95212.88
2022-12-03T16:11:15.799Z,95216.34
2022-12-03T16:13:43.412Z,95210.19
2022-12-03T16:16:11.109Z,95216.78
2022-12-03T16:18:38.751Z,95215.13
2022-12-03T16:21:07.845Z,95216.19
2022-12-03T16:23:35.543Z,95211.13
2022-12-03T16:26:03.232Z,95214.44
2022-12-03T16:28:30.883Z,95204.19
2022-12-03T16:30:58.611Z,95216.28
2022-12-03T16:33:28.025Z,95206.44
2022-12-03T16:35:55.983Z,95206.84
2022-12-03T16:38:25.169Z,95196.84
2022-12-03T16:40:52.775Z,95206.63
2022-12-03T16:43:20.405Z,95215.25
2022-12-03T16:46:20.145Z,95212.72
2022-12-03T16:48:48.660Z,95216.88
2022-12-03T16:51:16.367Z,95210.16
2022-12-03T16:53:45.288Z,95207.34
2022-12-03T16:56:12.965Z,95200.50
2022-12-03T16:58:40.668Z,95204.72
2022-12-03T17:01:08.734Z,95205.03
2022-12-03T17:03:36.463Z,95206.78
2022-12-03T17:06:05.371Z,95206.69
2022-12-03T17:08:32.991Z,95210.59
2022-12-03T17:11:02.278Z,95204.13
2022-12-03T17:13:29.952Z,95201.97
2022-12-03T17:15:57.679Z,95194.47
2022-12-03T17:18:26.260Z,95200.16
2022-12-03T17:20:53.910Z,95210.59
2022-12-03T17:23:21.477Z,95190.88
2022-12-03T17:25:49.184Z,95188.59
2022-12-03T17:28:18.117Z,95183.72
2022-12-03T17:30:45.885Z,95180.56
2022-12-03T17:33:13.515Z,95176.06
2022-12-03T17:35:41.321Z,95184.00
2022-12-03T17:38:09.643Z,95183.59
2022-12-03T17:40:37.243Z,95177.97
2022-12-03T17:43:04.969Z,95176.75
2022-12-03T17:45:33.994Z,95179.47
2022-12-03T17:48:01.616Z,95181.94
2022-12-03T17:50:29.253Z,95177.06
2022-12-03T17:52:56.883Z,95183.22
2022-12-03T17:55:33.809Z,95173.13
2022-12-03T17:58:06.243Z,95180.81
2022-12-03T18:00:35.476Z,95177.50
2022-12-03T18:03:03.094Z,95166.41
2022-12-03T18:05:30.773Z,95176.66
2022-12-03T18:07:58.461Z,95179.31
2022-12-03T18:10:26.241Z,95176.81
2022-12-03T18:12:58.420Z,95176.03
2022-12-03T18:15:29.161Z,95178.50
2022-12-03T18:17:58.156Z,95169.38
2022-12-03T18:20:25.816Z,95170.47
2022-12-03T18:22:53.493Z,95172.03
2022-12-03T18:25:21.276Z,95175.47
2022-12-03T18:27:48.917Z,95167.47
2022-12-03T18:30:16.707Z,95175.53
2022-12-03T18:32:44.418Z,95170.66
2022-12-03T18:35:13.444Z,95170.94
2022-12-03T18:37:41.152Z,95155.56
2022-12-03T18:40:17.859Z,95157.38
2022-12-03T18:42:45.604Z,95165.19
2022-12-03T18:45:14.819Z,95157.63
2022-12-03T18:47:42.843Z,95164.53
2022-12-03T18:50:11.970Z,95161.97
2022-12-03T18:52:40.995Z,95162.84
2022-12-03T18:55:09.915Z,95160.38
2022-12-03T18:57:37.537Z,95162.38
2022-12-03T19:00:11.920Z,95164.78
2022-12-03T19:05:28.930Z,95172.53
2022-12-03T19:07:57.963Z,95178.09
2022-12-03T19:10:25.942Z,95168.97
2022-12-03T19:12:53.531Z,95176.66
2022-12-03T19:15:21.163Z,95176.03
2022-12-03T19:17:49.271Z,95178.75
2022-12-03T19:20:17.125Z,95167.91
2022-12-03T19:22:44.799Z,95167.84
2022-12-03T19:25:13.767Z,95159.66
2022-12-03T19:27:41.424Z,95165.66
2022-12-03T19:30:10.190Z,95160.78
2022-12-03T19:32:37.811Z,95154.56
2022-12-03T19:35:07.501Z,95158.13
2022-12-03T19:37:35.199Z,95160.19
2022-12-03T19:40:02.795Z,95158.72
2022-12-03T19:42:32.007Z,95151.13
2022-12-03T19:44:59.623Z,95151.84
2022-12-03T19:47:27.261Z,95155.31
2022-12-03T19:49:55.138Z,95155.91
2022-12-03T19:52:22.906Z,95162.75
2022-12-03T19:54:50.522Z,95153.81
2022-12-03T19:57:23.308Z,95157.47
2022-12-03T19:59:53.041Z,95151.94
2022-12-03T20:02:20.974Z,95150.25
2022-12-03T20:04:48.574Z,95159.94
2022-12-03T20:07:16.179Z,95163.75
2022-12-03T20:09:43.831Z,95153.75
2022-12-03T20:12:11.463Z,95152.34
2022-12-03T20:14:39.317Z,95160.13
2022-12-03T20:17:08.417Z,95152.44
2022-12-03T20:19:36.136Z,95149.34
2022-12-03T20:22:03.736Z,95146.63
2022-12-03T20:24:31.427Z,95143.72
2022-12-03T20:26:59.049Z,95136.00
2022-12-03T20:29:26.686Z,95130.91
2022-12-03T20:31:54.406Z,95131.63
2022-12-03T20:34:23.377Z,95133.16
2022-12-03T20:36:50.987Z,95120.19
2022-12-03T20:39:18.630Z,95118.47
2022-12-03T20:41:46.279Z,95122.88
2022-12-03T20:44:13.948Z,95121.81
2022-12-03T20:46:41.730Z,95122.69
2022-12-03T20:49:09.390Z,95114.59
2022-12-03T20:51:38.405Z,95111.69
2022-12-03T20:54:06.117Z,95118.91
2022-12-03T20:56:36.634Z,95125.19
2022-12-03T20:59:06.672Z,95115.41
2022-12-03T21:01:35.934Z,95120.88
2022-12-03T21:04:04.642Z,95120.94
2022-12-03T21:06:34.267Z,95116.97
2022-12-03T21:09:05.027Z,95111.25
2022-12-03T21:11:35.803Z,95106.53
2022-12-03T21:14:04.154Z,95099.56
2022-12-03T21:17:05.811Z,95083.06
2022-12-03T21:19:22.643Z,95088.75
2022-12-03T21:21:50.283Z,95091.00
2022-12-03T21:24:19.305Z,95087.88
2022-12-03T21:26:46.955Z,95098.47
2022-12-03T21:29:14.593Z,95087.44
2022-12-03T21:31:42.198Z,95089.13
2022-12-03T21:34:09.931Z,95088.66
2022-12-03T21:36:37.555Z,95086.34
2022-12-03T21:39:05.319Z,95084.53
2022-12-03T21:41:35.136Z,95077.22
2022-12-03T21:44:03.059Z,95081.50
2022-12-03T21:47:11.157Z,95081.66
2022-12-03T21:49:19.375Z,95092.28
2022-12-03T21:51:47.446Z,95086.44
2022-12-03T21:54:15.175Z,95084.56
2022-12-03T21:56:44.201Z,95088.31
2022-12-03T21:59:11.871Z,95083.44
2022-12-03T22:01:44.016Z,95092.50
2022-12-03T22:04:14.449Z,95090.94
2022-12-03T22:06:42.107Z,95097.13
2022-12-03T22:09:09.709Z,95096.03
2022-12-03T22:11:37.303Z,95082.84
2022-12-03T22:14:08.178Z,95090.75
2022-12-03T22:16:35.949Z,95094.41
2022-12-03T22:19:03.652Z,95088.53
2022-12-03T22:21:31.302Z,95093.28
2022-12-03T22:23:58.924Z,95093.06
2022-12-03T22:26:26.599Z,95087.94
2022-12-03T22:28:54.235Z,95074.38
2022-12-03T22:31:23.260Z,95079.59
2022-12-03T22:33:50.996Z,95074.53
2022-12-03T22:36:21.555Z,95082.44
2022-12-03T22:38:51.079Z,95067.00
2022-12-03T22:41:19.834Z,95078.59
2022-12-03T22:43:48.342Z,95070.34
2022-12-03T22:46:16.795Z,95070.78
2022-12-03T22:48:47.304Z,95057.97
2022-12-03T22:51:17.234Z,95059.69
2022-12-03T22:53:44.934Z,95066.41
2022-12-03T22:56:12.804Z,95056.72
2022-12-03T22:58:41.170Z,95053.63
2022-12-03T23:01:09.076Z,95061.31
2022-12-03T23:07:15.314Z,95056.56
2022-12-03T23:09:42.943Z,95056.19
2022-12-03T23:12:10.536Z,95046.38
2022-12-03T23:14:38.129Z,95034.63
2022-12-03T23:17:05.752Z,95033.41
2022-12-03T23:19:33.374Z,95036.78
2022-12-03T23:22:01.147Z,95039.06
2022-12-03T23:24:30.152Z,95037.41
2022-12-03T23:26:57.772Z,95030.13
2022-12-03T23:29:25.451Z,95027.00
2022-12-03T23:31:53.127Z,95033.13
2022-12-03T23:34:20.809Z,95025.59
2022-12-03T23:36:50.819Z,95033.50
2022-12-03T23:39:18.468Z,95029.16
2022-12-03T23:41:47.462Z,95018.28
2022-12-03T23:44:15.166Z,95013.53
2022-12-03T23:46:42.863Z,95016.91
2022-12-03T23:49:11.041Z,95015.69
2022-12-03T23:51:39.521Z,95009.28
2022-12-03T23:54:08.871Z,95016.97
2022-12-03T23:56:40.205Z,95008.59
2022-12-03T23:59:11.123Z,94991.75
